Time;durP1;ratioP1;P1;durP2;ratioP2;P2;SDS_P1;SDS_P2;PMS_P1;PMS_P2;Temp;Humidity;BMP_temperature;BMP_pressure;BME280_temperature;BME280_humidity;BME280_pressure;Samples;Min_cycle;Max_cycle;Signal;HPM_P1;HPM_P2
2021/10/01 00:01:20;;;;;;;3.25;0.98;;;14.90;98.30;;;;;;4944276;28;20174;-63
2021/10/01 00:03:47;;;;;;;4.05;0.80;;;15.00;98.30;;;;;;4943121;29;20066;-63
2021/10/01 00:06:13;;;;;;;1.63;0.82;;;14.90;98.40;;;;;;4944441;28;20067;-62
2021/10/01 00:08:40;;;;;;;1.10;0.60;;;15.00;98.40;;;;;;4942141;29;20043;-63
2021/10/01 00:11:07;;;;;;;4.00;1.05;;;15.00;98.30;;;;;;4944525;28;20078;-62
2021/10/01 00:13:34;;;;;;;1.52;0.70;;;15.00;98.30;;;;;;4943394;28;20055;-62
2021/10/01 00:16:01;;;;;;;1.42;0.52;;;15.00;98.40;;;;;;4944261;28;20115;-63
2021/10/01 00:18:29;;;;;;;2.10;0.90;;;15.00;98.30;;;;;;4942670;28;20142;-62
2021/10/01 00:20:56;;;;;;;1.40;0.88;;;15.00;98.40;;;;;;4945013;28;20207;-64
2021/10/01 00:23:22;;;;;;;1.15;0.60;;;15.00;98.30;;;;;;4943394;28;20079;-63
2021/10/01 00:25:49;;;;;;;3.67;0.77;;;15.00;98.50;;;;;;4944593;28;20055;-63
2021/10/01 00:28:16;;;;;;;2.22;0.50;;;15.00;98.30;;;;;;4943333;28;20515;-63
2021/10/01 00:30:42;;;;;;;1.23;0.60;;;15.00;98.40;;;;;;4944296;28;20131;-62
2021/10/01 00:33:09;;;;;;;3.75;1.55;;;15.00;98.50;;;;;;4943902;28;20544;-63
2021/10/01 00:35:36;;;;;;;1.67;0.65;;;15.00;98.40;;;;;;4944218;28;20053;-62
2021/10/01 00:38:03;;;;;;;2.55;0.80;;;15.00;98.40;;;;;;4943213;28;20082;-63
2021/10/01 00:40:30;;;;;;;7.03;1.42;;;15.00;98.50;;;;;;4943682;28;20142;-62
2021/10/01 00:42:56;;;;;;;3.10;1.75;;;15.00;98.30;;;;;;4942485;29;20505;-63
2021/10/01 00:45:23;;;;;;;2.78;1.10;;;15.10;98.40;;;;;;4943529;28;20146;-63
2021/10/01 00:47:50;;;;;;;7.22;1.13;;;15.10;98.50;;;;;;4943091;28;20106;-63
2021/10/01 00:50:16;;;;;;;5.95;1.40;;;15.10;98.40;;;;;;4943584;28;20086;-63
2021/10/01 00:52:44;;;;;;;10.60;1.40;;;15.10;98.40;;;;;;4943869;28;20142;-63
2021/10/01 00:55:10;;;;;;;5.32;1.83;;;15.10;98.40;;;;;;4942707;29;20151;-62
2021/10/01 00:57:37;;;;;;;5.47;1.42;;;15.10;98.40;;;;;;4943841;28;20142;-62
2021/10/01 01:00:05;;;;;;;7.07;1.40;;;15.10;98.40;;;;;;4942394;28;20698;-62
2021/10/01 01:02:32;;;;;;;3.03;1.10;;;15.20;98.30;;;;;;4942720;28;20551;-62
2021/10/01 01:04:59;;;;;;;4.15;1.45;;;15.20;98.30;;;;;;4942789;28;20578;-63
2021/10/01 01:08:02;;;;;;;7.03;1.45;;;15.20;98.30;;;;;;4942314;29;20079;-62
2021/10/01 01:10:32;;;;;;;7.63;1.33;;;15.20;98.60;;;;;;4931926;29;20496;-62
2021/10/01 01:13:02;;;;;;;8.48;1.50;;;15.20;98.50;;;;;;4941831;28;20559;-63
2021/10/01 01:15:31;;;;;;;5.60;1.17;;;15.20;98.50;;;;;;4942217;29;20082;-62
2021/10/01 01:18:07;;;;;;;8.18;1.50;;;15.10;98.50;;;;;;4941533;29;20143;-63
2021/10/01 01:20:37;;;;;;;6.38;1.58;;;15.20;98.40;;;;;;4942302;29;20087;-62
2021/10/01 01:23:18;;;;;;;4.47;1.50;;;15.20;98.40;;;;;;4942299;29;20130;-63
2021/10/01 01:26:43;;;;;;;7.57;2.72;;;15.20;98.40;;;;;;4944446;28;20082;-62
2021/10/01 01:29:31;;;;;;;5.78;1.83;;;15.30;98.40;;;;;;4934059;29;20150;-62
2021/10/01 01:31:58;;;;;;;7.13;1.30;;;15.30;98.20;;;;;;4921265;29;20215;-62
2021/10/01 01:34:37;;;;;;;3.85;1.20;;;15.30;98.20;;;;;;4944356;29;20066;-63
2021/10/01 01:37:09;;;;;;;4.40;1.02;;;15.30;98.30;;;;;;4945356;28;20574;-63
2021/10/01 01:39:35;;;;;;;4.60;1.00;;;15.30;98.30;;;;;;4943246;29;20135;-62
2021/10/01 01:42:02;;;;;;;2.15;0.90;;;15.30;98.30;;;;;;4944659;29;20562;-62
2021/10/01 01:44:29;;;;;;;2.40;0.80;;;15.30;98.40;;;;;;4944664;28;20082;-62
2021/10/01 01:46:57;;;;;;;2.70;0.98;;;15.30;98.20;;;;;;4944694;28;20135;-63
2021/10/01 01:49:24;;;;;;;2.92;0.82;;;15.30;98.40;;;;;;4946733;29;20529;-62
2021/10/01 01:51:51;;;;;;;1.67;0.60;;;15.30;98.30;;;;;;4946829;28;20495;-63
2021/10/01 01:54:18;;;;;;;3.05;0.63;;;15.30;98.40;;;;;;4946948;29;20075;-62
2021/10/01 01:56:45;;;;;;;3.67;0.95;;;15.30;98.40;;;;;;4947783;29;20079;-63
2021/10/01 01:59:12;;;;;;;3.35;1.33;;;15.30;98.40;;;;;;4946157;29;20531;-63
2021/10/01 02:01:40;;;;;;;4.38;1.23;;;15.30;98.40;;;;;;4947204;29;20094;-63
2021/10/01 02:04:07;;;;;;;2.47;0.70;;;15.30;98.40;;;;;;4947594;29;20084;-63
2021/10/01 02:06:34;;;;;;;1.95;0.75;;;15.30;98.30;;;;;;4948624;28;20078;-63
2021/10/01 02:09:01;;;;;;;1.75;0.70;;;15.30;98.50;;;;;;4946183;29;20490;-62
2021/10/01 02:11:27;;;;;;;1.90;0.75;;;15.30;98.50;;;;;;4944956;28;20787;-62
2021/10/01 02:13:54;;;;;;;4.22;0.93;;;15.30;98.60;;;;;;4945795;29;20086;-63
2021/10/01 02:16:21;;;;;;;3.10;0.75;;;15.30;98.60;;;;;;4947041;29;20129;-63
2021/10/01 02:18:48;;;;;;;3.75;0.68;;;15.30;98.50;;;;;;4946721;29;20110;-63
2021/10/01 02:21:15;;;;;;;1.75;0.50;;;15.30;98.40;;;;;;4946222;29;20082;-62
2021/10/01 02:23:42;;;;;;;2.13;0.60;;;15.40;98.40;;;;;;4946743;28;20146;-62
2021/10/01 02:28:58;;;;;;;2.22;0.70;;;15.40;98.40;;;;;;4945992;29;20086;-62
2021/10/01 02:31:32;;;;;;;0.95;0.50;;;15.40;98.50;;;;;;4945838;29;20129;-62
2021/10/01 02:34:01;;;;;;;1.05;0.60;;;15.40;98.50;;;;;;4931106;29;20137;-63
2021/10/01 02:36:28;;;;;;;3.10;0.82;;;15.40;98.40;;;;;;4929924;29;20106;-62
2021/10/01 02:38:56;;;;;;;3.53;0.90;;;15.40;98.50;;;;;;4945873;29;20055;-63
2021/10/01 02:41:22;;;;;;;1.42;0.90;;;15.50;98.50;;;;;;4945771;29;20594;-63
2021/10/01 02:43:49;;;;;;;3.10;0.60;;;15.50;98.60;;;;;;4944981;28;20210;-63
2021/10/01 02:46:16;;;;;;;1.42;0.60;;;15.40;98.70;;;;;;4947093;28;20134;-63
2021/10/01 02:48:43;;;;;;;1.83;0.70;;;15.40;98.80;;;;;;4947239;28;20050;-63
2021/10/01 02:51:13;;;;;;;2.33;0.98;;;15.40;98.80;;;;;;4946715;29;20134;-63
2021/10/01 02:53:52;;;;;;;1.65;0.60;;;15.40;99.00;;;;;;4945430;29;20134;-63
2021/10/01 02:56:25;;;;;;;1.30;0.70;;;15.40;99.10;;;;;;4930965;29;20098;-63
2021/10/01 02:58:57;;;;;;;1.92;0.60;;;15.40;99.20;;;;;;4944475;28;20710;-63
2021/10/01 03:01:24;;;;;;;0.95;0.32;;;15.40;99.00;;;;;;4946047;29;20047;-63
2021/10/01 03:03:51;;;;;;;1.25;0.50;;;15.40;99.00;;;;;;4946598;29;20054;-63
2021/10/01 03:06:20;;;;;;;2.35;0.40;;;15.40;98.90;;;;;;4948185;28;20051;-63
2021/10/01 03:08:50;;;;;;;0.75;0.40;;;15.40;99.30;;;;;;4946301;29;20507;-63
2021/10/01 03:11:17;;;;;;;0.70;0.50;;;15.40;99.00;;;;;;4948635;29;20503;-63
2021/10/01 03:13:45;;;;;;;0.38;0.38;;;15.40;99.00;;;;;;4947886;29;20047;-63
2021/10/01 03:16:12;;;;;;;0.85;0.60;;;15.40;99.10;;;;;;4948521;29;20078;-63
2021/10/01 03:18:39;;;;;;;2.83;0.52;;;15.40;99.00;;;;;;4964003;28;20047;-63
2021/10/01 03:21:06;;;;;;;1.15;0.52;;;15.40;99.00;;;;;;4948244;29;20090;-63
2021/10/01 03:23:33;;;;;;;1.05;0.50;;;15.40;99.10;;;;;;4947860;29;20712;-63
2021/10/01 03:26:00;;;;;;;1.33;0.43;;;15.40;99.20;;;;;;4949951;28;20054;-63
2021/10/01 03:28:27;;;;;;;2.67;0.65;;;15.40;99.00;;;;;;4947327;29;20228;-63
2021/10/01 03:30:53;;;;;;;0.75;0.52;;;15.40;99.10;;;;;;4948778;29;20086;-63
2021/10/01 03:33:24;;;;;;;2.65;0.60;;;15.40;98.90;;;;;;4947407;29;20581;-62
2021/10/01 03:35:51;;;;;;;0.85;0.50;;;15.40;98.90;;;;;;4950133;28;20086;-63
2021/10/01 03:38:19;;;;;;;0.57;0.40;;;15.50;98.90;;;;;;4947274;29;20086;-64
2021/10/01 03:40:46;;;;;;;1.73;0.70;;;15.50;98.90;;;;;;4948542;29;20089;-63
2021/10/01 03:43:13;;;;;;;1.75;0.40;;;15.50;99.00;;;;;;4946818;29;20157;-63
2021/10/01 03:45:40;;;;;;;0.77;0.50;;;15.50;98.90;;;;;;4948095;29;20594;-63
2021/10/01 03:48:07;;;;;;;1.65;0.60;;;15.50;98.90;;;;;;4947564;29;20526;-63
2021/10/01 03:50:34;;;;;;;1.33;0.68;;;15.50;98.80;;;;;;4948348;29;20114;-63
2021/10/01 03:53:01;;;;;;;0.90;0.40;;;15.60;98.90;;;;;;4949223;28;20083;-63
2021/10/01 03:55:28;;;;;;;2.28;0.50;;;15.50;98.90;;;;;;4948829;28;20244;-63
2021/10/01 03:57:55;;;;;;;0.45;0.40;;;15.60;98.80;;;;;;4947585;29;20079;-63
2021/10/01 04:00:21;;;;;;;2.97;0.43;;;15.60;98.90;;;;;;4948919;28;20182;-63
2021/10/01 04:02:48;;;;;;;0.82;0.30;;;15.50;98.80;;;;;;4949188;28;20162;-63
2021/10/01 04:05:16;;;;;;;0.73;0.40;;;15.60;98.80;;;;;;4949041;28;20138;-63
2021/10/01 04:07:43;;;;;;;1.35;0.40;;;15.60;98.70;;;;;;4947754;29;20110;-63
2021/10/01 04:10:11;;;;;;;0.38;0.30;;;15.60;98.70;;;;;;4948447;28;20110;-63
2021/10/01 04:12:37;;;;;;;0.47;0.30;;;15.60;98.70;;;;;;4949536;28;20090;-63
2021/10/01 04:15:05;;;;;;;0.35;0.35;;;15.60;98.60;;;;;;4948287;28;20142;-63
2021/10/01 04:17:32;;;;;;;1.23;0.50;;;15.60;98.70;;;;;;4948748;28;20111;-63
2021/10/01 04:19:59;;;;;;;0.68;0.20;;;15.60;98.70;;;;;;4948580;28;20477;-63
2021/10/01 04:22:26;;;;;;;0.25;0.25;;;15.60;98.60;;;;;;4947655;29;20070;-62
2021/10/01 04:24:52;;;;;;;0.45;0.30;;;15.60;98.60;;;;;;4946969;28;20142;-63
2021/10/01 04:27:19;;;;;;;1.05;0.40;;;15.50;98.60;;;;;;4949114;28;20113;-63
2021/10/01 04:29:46;;;;;;;1.25;0.50;;;15.50;98.60;;;;;;4962484;28;20079;-63
2021/10/01 04:32:13;;;;;;;0.88;0.30;;;15.50;98.50;;;;;;4948634;28;20167;-62
2021/10/01 04:34:54;;;;;;;0.45;0.30;;;15.50;98.60;;;;;;4948433;28;20086;-63
2021/10/01 04:37:21;;;;;;;1.23;0.70;;;15.60;98.60;;;;;;4947968;29;20075;-63
2021/10/01 04:39:47;;;;;;;1.67;0.82;;;15.60;98.60;;;;;;4948288;28;20078;-63
2021/10/01 04:42:14;;;;;;;1.25;0.52;;;15.60;98.60;;;;;;4948333;28;20483;-63
2021/10/01 04:44:41;;;;;;;0.68;0.50;;;15.60;98.70;;;;;;4947284;28;20091;-64
2021/10/01 04:47:07;;;;;;;1.13;0.45;;;15.60;98.80;;;;;;4947940;28;20142;-64
2021/10/01 04:49:34;;;;;;;1.20;0.40;;;15.60;98.90;;;;;;4944314;28;20142;-64
2021/10/01 04:52:01;;;;;;;1.10;0.45;;;15.60;98.90;;;;;;4946108;28;20135;-64
2021/10/01 04:54:28;;;;;;;1.67;0.57;;;15.60;98.90;;;;;;4945514;28;20059;-64
2021/10/01 04:56:54;;;;;;;0.75;0.32;;;15.60;99.00;;;;;;4946318;28;20476;-65
2021/10/01 04:59:21;;;;;;;1.20;0.40;;;15.60;99.00;;;;;;4944771;28;20130;-64
2021/10/01 05:01:48;;;;;;;1.65;0.32;;;15.60;98.90;;;;;;4944983;28;20066;-64
2021/10/01 05:04:15;;;;;;;1.65;0.60;;;15.70;98.90;;;;;;4943419;28;20522;-64
2021/10/01 05:06:42;;;;;;;2.75;0.75;;;15.70;98.80;;;;;;4944508;28;20138;-64
2021/10/01 05:09:09;;;;;;;1.73;0.60;;;15.70;98.70;;;;;;4938817;28;20293;-63
2021/10/01 05:11:35;;;;;;;3.55;0.95;;;15.70;98.70;;;;;;4926147;29;20135;-63
2021/10/01 05:14:02;;;;;;;2.30;0.80;;;15.70;98.40;;;;;;4941877;29;20074;-63
2021/10/01 05:16:29;;;;;;;4.32;0.80;;;15.80;98.40;;;;;;4943197;28;20086;-64
2021/10/01 05:18:56;;;;;;;1.70;0.75;;;15.80;98.20;;;;;;4942470;28;20061;-63
2021/10/01 05:21:23;;;;;;;3.00;0.70;;;15.80;98.20;;;;;;4942754;28;20098;-63
2021/10/01 05:23:50;;;;;;;2.50;0.88;;;15.80;98.10;;;;;;4946559;28;20075;-63
2021/10/01 05:26:17;;;;;;;2.97;0.90;;;15.80;98.10;;;;;;4940950;28;20094;-63
2021/10/01 05:28:43;;;;;;;1.17;0.70;;;15.80;97.90;;;;;;4941930;29;20126;-63
2021/10/01 05:31:10;;;;;;;1.02;0.70;;;15.80;97.90;;;;;;4949421;28;20456;-63
2021/10/01 05:33:37;;;;;;;3.38;0.75;;;15.80;98.00;;;;;;4941762;28;20559;-63
2021/10/01 05:36:04;;;;;;;1.92;0.80;;;15.80;97.80;;;;;;4943774;28;20553;-63
2021/10/01 05:38:31;;;;;;;1.65;0.65;;;15.90;97.90;;;;;;4940842;29;20584;-63
2021/10/01 05:40:58;;;;;;;6.72;1.05;;;15.80;97.80;;;;;;4931445;28;20163;-63
2021/10/01 05:43:25;;;;;;;4.78;0.90;;;15.90;97.90;;;;;;4935931;29;20087;-63
2021/10/01 05:45:54;;;;;;;3.58;0.93;;;15.90;97.90;;;;;;4943687;28;20407;-63
2021/10/01 05:48:23;;;;;;;5.43;0.73;;;15.90;97.90;;;;;;4938172;29;20502;-64
2021/10/01 05:50:54;;;;;;;4.32;0.82;;;15.90;97.80;;;;;;4957548;28;20554;-63
2021/10/01 05:56:07;;;;;;;1.25;0.77;;;16.00;97.90;;;;;;4941950;28;20085;-62
2021/10/01 05:58:35;;;;;;;1.85;0.70;;;15.90;97.80;;;;;;4941779;28;20492;-62
2021/10/01 06:01:03;;;;;;;2.30;0.70;;;15.90;97.90;;;;;;4942144;29;20086;-62
2021/10/01 06:03:30;;;;;;;2.95;0.75;;;16.00;98.10;;;;;;4942883;28;20503;-62
2021/10/01 06:05:57;;;;;;;2.65;1.00;;;15.90;98.40;;;;;;4943760;28;20059;-62
2021/10/01 06:08:23;;;;;;;0.77;0.40;;;15.90;98.30;;;;;;4939783;29;20082;-62
2021/10/01 06:10:50;;;;;;;1.75;0.57;;;15.90;98.30;;;;;;4936214;28;20107;-62
2021/10/01 06:13:17;;;;;;;2.33;0.47;;;15.90;98.30;;;;;;4935036;29;20146;-62
2021/10/01 06:15:44;;;;;;;1.83;0.68;;;15.90;98.20;;;;;;4941939;29;20139;-62
2021/10/01 06:18:10;;;;;;;2.95;0.80;;;15.90;98.00;;;;;;4930281;29;20094;-62
2021/10/01 06:20:37;;;;;;;2.90;0.95;;;15.90;97.80;;;;;;4943686;28;20163;-62
2021/10/01 06:23:04;;;;;;;4.35;1.13;;;16.00;97.70;;;;;;4943335;28;20134;-62
2021/10/01 06:25:31;;;;;;;2.45;1.30;;;16.00;97.60;;;;;;4941097;29;20090;-62
2021/10/01 06:27:57;;;;;;;6.65;1.30;;;16.10;97.60;;;;;;4936917;28;20134;-62
2021/10/01 06:30:24;;;;;;;2.60;1.00;;;16.10;97.50;;;;;;4936212;28;20082;-62
2021/10/01 06:32:51;;;;;;;5.90;1.40;;;16.10;97.60;;;;;;4928348;29;20131;-62
2021/10/01 06:35:18;;;;;;;4.93;1.70;;;16.10;97.40;;;;;;4936759;29;20131;-62
2021/10/01 06:37:45;;;;;;;4.93;1.40;;;16.10;97.20;;;;;;4942921;28;20125;-62
2021/10/01 06:40:12;;;;;;;3.55;1.67;;;16.10;97.10;;;;;;4940456;29;20158;-62
2021/10/01 06:42:41;;;;;;;5.68;1.30;;;16.10;97.10;;;;;;4943391;28;20142;-62
2021/10/01 06:45:20;;;;;;;6.80;1.77;;;16.10;97.10;;;;;;4940077;28;20142;-62
2021/10/01 06:48:07;;;;;;;5.55;1.48;;;16.20;96.90;;;;;;4936638;28;20081;-62
2021/10/01 08:20:55;;;;;;;3.78;1.48;;;12.50;99.90;;;;;;4938085;29;20611;-63
2021/10/01 08:23:22;;;;;;;5.18;1.70;;;12.60;99.90;;;;;;4938172;29;20054;-63
2021/10/01 08:25:49;;;;;;;4.78;1.50;;;12.70;99.90;;;;;;4940472;28;20121;-63
2021/10/01 08:28:15;;;;;;;5.00;1.98;;;12.70;99.90;;;;;;4939293;28;20210;-63
2021/10/01 08:30:42;;;;;;;4.43;1.88;;;12.80;99.90;;;;;;4940282;28;20047;-63
2021/10/01 08:33:09;;;;;;;6.78;1.40;;;12.90;99.90;;;;;;4939697;28;20055;-62
2021/10/01 08:35:35;;;;;;;4.70;1.50;;;13.10;99.90;;;;;;4940409;28;20139;-63
2021/10/01 08:38:03;;;;;;;3.53;1.50;;;13.20;99.90;;;;;;4939969;28;20578;-63
2021/10/01 08:40:30;;;;;;;6.18;1.95;;;13.40;99.90;;;;;;4940249;28;20347;-63
2021/10/01 08:42:56;;;;;;;8.15;1.90;;;13.40;99.90;;;;;;4938358;28;20142;-63
2021/10/01 08:45:24;;;;;;;4.78;1.75;;;13.50;99.90;;;;;;4936033;29;20146;-63
2021/10/01 08:47:51;;;;;;;6.88;1.90;;;13.60;99.90;;;;;;4936502;28;20618;-63
2021/10/01 08:50:20;;;;;;;6.03;2.55;;;13.60;99.90;;;;;;4954406;28;20138;-62
2021/10/01 08:52:48;;;;;;;9.90;2.05;;;13.60;99.90;;;;;;4938115;29;20138;-62
2021/10/01 08:55:15;;;;;;;14.60;7.10;;;13.60;99.90;;;;;;4939596;29;20560;-62
2021/10/01 08:57:42;;;;;;;6.70;2.10;;;13.60;99.90;;;;;;4942597;28;20440;-62
2021/10/01 09:00:16;;;;;;;6.22;1.75;;;13.70;99.90;;;;;;4958242;28;20130;-62
2021/10/01 09:02:43;;;;;;;8.68;2.25;;;13.60;99.90;;;;;;4943441;29;20094;-62
2021/10/01 09:05:10;;;;;;;6.88;1.90;;;13.70;99.90;;;;;;4945100;28;20165;-62
2021/10/01 09:07:37;;;;;;;9.77;2.13;;;13.70;99.90;;;;;;4945055;28;20085;-62
2021/10/01 09:10:08;;;;;;;11.45;2.30;;;13.60;99.90;;;;;;4943850;28;20562;-62
2021/10/01 09:12:35;;;;;;;7.68;2.70;;;13.70;99.90;;;;;;4944708;28;20078;-62
2021/10/01 09:15:02;;;;;;;9.68;2.30;;;13.60;99.90;;;;;;4943243;28;20047;-62
2021/10/01 09:17:30;;;;;;;5.82;1.85;;;13.70;99.90;;;;;;4944582;28;20086;-62
2021/10/01 09:19:57;;;;;;;10.32;2.28;;;13.70;99.90;;;;;;4942347;28;20058;-62
2021/10/01 09:22:35;;;;;;;7.63;2.47;;;13.70;99.90;;;;;;4944705;28;20514;-62
2021/10/01 09:25:21;;;;;;;8.98;2.25;;;13.80;99.90;;;;;;4942084;29;20268;-61
2021/10/01 09:27:49;;;;;;;11.27;3.17;;;13.70;99.90;;;;;;4944795;28;20519;-62
2021/10/01 09:30:18;;;;;;;9.88;3.05;;;13.80;99.90;;;;;;4943020;28;20174;-61
2021/10/01 09:33:07;;;;;;;10.30;3.45;;;13.80;99.90;;;;;;4942264;28;20055;-61
2021/10/01 09:35:34;;;;;;;14.77;3.85;;;13.90;99.90;;;;;;4941606;28;20055;-61
2021/10/01 09:38:08;;;;;;;11.18;2.85;;;14.00;99.90;;;;;;4943916;28;20070;-61
2021/10/01 09:40:35;;;;;;;13.80;3.05;;;14.10;99.90;;;;;;4944082;28;20070;-61
2021/10/01 09:43:02;;;;;;;11.43;3.03;;;14.10;99.90;;;;;;4944044;28;20093;-61
2021/10/01 09:45:29;;;;;;;17.92;4.00;;;14.20;99.90;;;;;;4942867;28;20122;-61
2021/10/01 09:47:57;;;;;;;14.85;4.03;;;14.20;99.90;;;;;;4943059;28;20660;-61
2021/10/01 09:50:27;;;;;;;12.50;4.18;;;14.20;99.90;;;;;;4943917;28;20134;-61
2021/10/01 09:52:55;;;;;;;15.93;4.30;;;14.30;99.90;;;;;;4942428;28;20047;-61
2021/10/01 09:55:38;;;;;;;12.55;3.55;;;14.40;99.90;;;;;;4943441;28;20053;-61
2021/10/01 09:58:09;;;;;;;16.02;4.40;;;14.40;99.90;;;;;;4940466;29;20083;-61
2021/10/01 10:00:42;;;;;;;14.57;4.80;;;14.50;99.90;;;;;;4943863;28;20093;-61
2021/10/01 10:03:24;;;;;;;17.65;3.88;;;14.60;99.90;;;;;;4941376;29;20143;-61
2021/10/01 10:05:58;;;;;;;11.07;3.58;;;14.80;99.90;;;;;;4944275;28;20083;-61
2021/10/01 10:08:41;;;;;;;13.55;3.97;;;14.90;99.90;;;;;;4941276;28;20047;-61
2021/10/01 10:11:10;;;;;;;14.52;4.00;;;14.90;99.90;;;;;;4942712;29;20051;-61
2021/10/01 10:13:46;;;;;;;13.35;3.53;;;15.00;99.90;;;;;;4942412;28;20134;-61
2021/10/01 10:16:26;;;;;;;15.52;3.85;;;15.00;99.90;;;;;;4942423;28;20162;-61
2021/10/01 10:19:04;;;;;;;15.60;3.67;;;15.00;99.90;;;;;;4941400;28;20062;-61
2021/10/01 10:21:31;;;;;;;10.30;3.50;;;15.10;99.90;;;;;;4938326;29;20590;-61
2021/10/01 10:23:58;;;;;;;16.75;5.05;;;15.00;99.90;;;;;;4940767;28;20146;-61
2021/10/01 10:26:25;;;;;;;12.95;3.30;;;15.00;99.90;;;;;;4942515;29;20050;-61
2021/10/01 10:28:53;;;;;;;9.40;3.20;;;15.00;99.90;;;;;;4940775;29;20130;-61
2021/10/01 10:31:20;;;;;;;11.80;4.45;;;15.00;99.90;;;;;;4939025;29;20554;-61
2021/10/01 10:33:49;;;;;;;17.33;4.97;;;15.00;99.90;;;;;;4941717;29;20055;-61
2021/10/01 10:36:35;;;;;;;10.93;4.05;;;15.10;99.90;;;;;;4942121;29;20141;-61
2021/10/01 10:39:11;;;;;;;16.50;2.95;;;15.20;99.90;;;;;;4942941;28;20099;-61
2021/10/01 10:41:38;;;;;;;11.68;3.22;;;15.30;99.80;;;;;;4943756;29;20140;-61
2021/10/01 10:44:06;;;;;;;10.57;2.78;;;15.40;99.90;;;;;;4941872;28;20138;-61
2021/10/01 10:46:35;;;;;;;12.25;3.42;;;15.50;99.60;;;;;;4942613;28;20102;-61
2021/10/01 10:52:03;;;;;;;11.63;3.05;;;15.60;98.80;;;;;;4941943;28;20063;-61
2021/10/01 10:54:37;;;;;;;9.00;3.42;;;15.60;98.40;;;;;;4955682;28;20503;-63
2021/10/01 10:57:21;;;;;;;7.10;2.35;;;15.60;98.40;;;;;;4942099;29;20106;-63
2021/10/01 11:00:03;;;;;;;10.32;2.40;;;15.90;98.50;;;;;;4939154;29;20129;-63
2021/10/01 11:02:35;;;;;;;9.75;2.70;;;16.00;97.50;;;;;;4940446;29;20083;-63
2021/10/01 11:05:22;;;;;;;7.20;2.33;;;16.10;96.70;;;;;;4942057;28;20098;-63
2021/10/01 11:07:51;;;;;;;7.90;2.60;;;16.10;95.90;;;;;;4941547;28;20113;-61
2021/10/01 11:10:43;;;;;;;10.15;2.72;;;16.20;95.20;;;;;;4939536;29;20407;-61
2021/10/01 11:13:31;;;;;;;10.40;3.15;;;16.20;94.00;;;;;;4940588;28;20059;-61
2021/10/01 11:16:11;;;;;;;7.05;2.00;;;16.20;94.20;;;;;;4924453;29;20462;-61
2021/10/01 11:18:47;;;;;;;12.02;3.05;;;16.20;94.30;;;;;;4937757;29;20051;-61
2021/10/01 11:21:26;;;;;;;8.18;2.60;;;16.30;94.30;;;;;;4942460;28;20130;-61
2021/10/01 11:24:00;;;;;;;11.85;2.85;;;16.30;93.60;;;;;;4941746;28;20459;-61
2021/10/01 11:26:28;;;;;;;7.88;2.20;;;16.40;92.90;;;;;;4942454;28;20265;-61
2021/10/01 11:28:55;;;;;;;6.75;1.98;;;16.40;92.50;;;;;;4939772;28;20091;-61
2021/10/01 11:31:22;;;;;;;8.32;2.53;;;16.40;93.30;;;;;;4938961;29;20146;-61
2021/10/01 11:33:50;;;;;;;8.77;2.25;;;16.40;93.60;;;;;;4940777;29;20137;-61
2021/10/01 11:36:26;;;;;;;11.15;3.55;;;16.50;92.70;;;;;;4941445;29;20523;-61
2021/10/01 11:39:22;;;;;;;11.10;3.05;;;16.60;92.50;;;;;;4940247;29;20138;-61
2021/10/01 11:41:49;;;;;;;8.15;2.13;;;16.70;90.70;;;;;;4935381;28;20046;-61
2021/10/01 11:44:16;;;;;;;8.00;2.40;;;16.80;92.10;;;;;;4940861;28;20581;-61
2021/10/01 11:46:44;;;;;;;7.90;2.17;;;16.80;92.20;;;;;;4941124;29;20181;-61
2021/10/01 11:49:20;;;;;;;7.10;1.60;;;16.90;91.30;;;;;;4938416;28;20059;-62
2021/10/01 11:52:05;;;;;;;14.95;3.03;;;16.90;92.60;;;;;;4940978;29;20055;-61
2021/10/01 11:54:32;;;;;;;6.75;2.08;;;17.00;90.50;;;;;;4940631;29;20086;-61
2021/10/01 11:57:00;;;;;;;4.60;1.88;;;17.20;92.00;;;;;;4940693;28;20139;-61
2021/10/01 11:59:51;;;;;;;6.88;2.00;;;17.20;91.90;;;;;;4940429;28;20153;-61
2021/10/01 12:02:46;;;;;;;12.27;2.50;;;17.30;90.10;;;;;;4943321;28;20905;-61
2021/10/01 12:05:40;;;;;;;7.70;2.28;;;17.30;90.60;;;;;;4940066;29;20047;-61
2021/10/01 12:08:08;;;;;;;9.80;3.00;;;17.40;90.50;;;;;;4924070;28;20138;-61
2021/10/01 12:10:46;;;;;;;10.90;2.25;;;17.50;87.90;;;;;;4938283;29;20650;-61
2021/10/01 12:13:28;;;;;;;8.70;2.00;;;17.70;89.50;;;;;;4939841;28;20090;-61
2021/10/01 12:16:04;;;;;;;6.03;1.83;;;18.00;89.90;;;;;;4940014;29;20055;-61
2021/10/01 12:18:35;;;;;;;4.80;1.42;;;18.40;87.50;;;;;;4938327;28;20133;-61
2021/10/01 12:21:19;;;;;;;5.53;2.03;;;18.40;84.80;;;;;;4941566;29;20427;-61
2021/10/01 12:23:46;;;;;;;;;;;18.30;83.70;;;;;;4939458;29;20145;-61
2021/10/01 12:26:23;;;;;;;10.55;2.13;;;18.20;83.10;;;;;;4940887;28;20040;-61
2021/10/01 12:29:08;;;;;;;8.32;2.15;;;18.00;83.80;;;;;;4940393;28;20047;-61
2021/10/01 12:31:39;;;;;;;8.10;1.85;;;18.00;84.70;;;;;;4938068;28;20134;-60
2021/10/01 12:34:15;;;;;;;9.07;1.67;;;18.00;85.10;;;;;;4936861;28;20054;-61
2021/10/01 12:36:44;;;;;;;6.30;1.17;;;18.10;82.40;;;;;;4923014;29;20149;-60
2021/10/01 12:39:11;;;;;;;5.90;1.75;;;18.00;79.00;;;;;;4939948;29;20679;-61
2021/10/01 12:41:38;;;;;;;3.95;1.42;;;18.00;80.10;;;;;;4939526;29;20134;-60
2021/10/01 12:44:09;;;;;;;4.85;1.92;;;18.40;78.50;;;;;;4939264;29;20138;-61
2021/10/01 12:46:46;;;;;;;2.72;1.20;;;18.70;77.20;;;;;;4939698;29;20159;-61
2021/10/01 12:49:19;;;;;;;4.05;1.42;;;19.10;74.60;;;;;;4942154;28;20228;-61
2021/10/01 12:52:09;;;;;;;2.92;1.20;;;19.60;76.30;;;;;;4944232;28;20277;-61
2021/10/01 12:54:40;;;;;;;8.70;1.77;;;20.00;71.80;;;;;;4940706;28;20138;-60
2021/10/01 12:57:13;;;;;;;7.20;2.25;;;19.70;73.00;;;;;;4942038;28;20090;-61
2021/10/01 12:59:43;;;;;;;5.35;1.65;;;19.30;73.30;;;;;;4933169;28;20090;-60
2021/10/01 13:02:15;;;;;;;4.78;1.52;;;18.90;74.20;;;;;;4941082;28;20590;-60
2021/10/01 13:04:49;;;;;;;2.78;1.02;;;18.60;74.20;;;;;;4941030;28;20126;-61
2021/10/01 13:07:41;;;;;;;3.65;1.23;;;18.20;73.90;;;;;;4939337;29;20063;-61
2021/10/01 13:10:17;;;;;;;6.13;1.10;;;18.00;74.90;;;;;;4940846;29;20170;-61
2021/10/01 13:12:54;;;;;;;7.72;2.22;;;17.80;77.90;;;;;;4941626;28;20047;-61
2021/10/01 13:15:40;;;;;;;4.72;1.38;;;17.80;77.60;;;;;;4955465;28;20158;-61
2021/10/01 13:18:14;;;;;;;2.20;0.90;;;17.60;78.10;;;;;;4940136;28;20047;-61
2021/10/01 13:21:02;;;;;;;4.38;1.40;;;17.50;79.00;;;;;;4939132;28;20055;-61
2021/10/01 13:23:45;;;;;;;4.47;1.70;;;17.50;78.50;;;;;;4942965;28;20090;-61
2021/10/01 13:26:18;;;;;;;4.35;1.40;;;17.50;76.70;;;;;;4941606;28;20138;-61
2021/10/01 13:28:47;;;;;;;5.80;1.40;;;17.60;77.80;;;;;;4940404;28;20054;-61
2021/10/01 13:31:15;;;;;;;3.45;1.30;;;17.70;78.50;;;;;;4939380;29;20713;-60
2021/10/01 13:33:42;;;;;;;5.57;2.05;;;17.80;79.00;;;;;;4956235;28;20087;-61
2021/10/01 13:36:09;;;;;;;2.55;1.10;;;17.70;79.80;;;;;;4941315;28;20062;-61
2021/10/01 13:38:37;;;;;;;3.38;1.00;;;17.80;79.30;;;;;;4939820;28;20353;-61
2021/10/01 13:41:06;;;;;;;4.25;1.20;;;17.80;79.30;;;;;;4940515;28;21244;-61
2021/10/01 13:43:34;;;;;;;3.10;1.13;;;17.90;78.60;;;;;;4941197;28;20443;-61
2021/10/01 13:46:01;;;;;;;5.85;1.33;;;18.10;76.20;;;;;;4943078;29;20093;-61
2021/10/01 13:48:27;;;;;;;5.00;1.40;;;18.70;76.10;;;;;;4943323;29;20167;-61
2021/10/01 13:50:54;;;;;;;3.95;1.58;;;18.90;74.40;;;;;;4924344;29;20141;-61
2021/10/01 13:53:22;;;;;;;5.97;1.20;;;19.00;74.70;;;;;;4943909;28;20582;-60
2021/10/01 13:55:49;;;;;;;5.32;1.27;;;18.80;75.80;;;;;;4944008;29;20094;-61
2021/10/01 13:58:16;;;;;;;2.08;1.13;;;18.70;75.10;;;;;;4940859;28;20047;-60
2021/10/01 14:00:43;;;;;;;4.43;1.27;;;18.70;75.90;;;;;;4941530;28;20051;-61
2021/10/01 14:03:10;;;;;;;5.22;1.20;;;19.60;73.00;;;;;;4940556;29;20051;-61
2021/10/01 14:05:36;;;;;;;4.75;1.50;;;20.20;68.00;;;;;;4943482;28;20142;-62
2021/10/01 14:08:04;;;;;;;7.85;1.42;;;20.70;70.20;;;;;;4944142;28;20509;-61
2021/10/01 14:10:31;;;;;;;4.85;1.23;;;21.20;66.70;;;;;;4943650;28;20153;-61
2021/10/01 14:12:58;;;;;;;3.50;1.02;;;21.70;66.20;;;;;;4942263;29;20165;-62
2021/10/01 14:15:26;;;;;;;3.35;1.02;;;21.80;63.80;;;;;;4944059;28;20492;-61
2021/10/01 14:17:52;;;;;;;3.15;1.00;;;21.10;63.80;;;;;;4942701;29;20122;-61
2021/10/01 14:20:21;;;;;;;1.48;0.75;;;20.50;66.50;;;;;;4941155;29;20078;-61
2021/10/01 14:22:48;;;;;;;2.95;1.20;;;19.80;66.00;;;;;;4958858;28;20142;-61
2021/10/01 14:25:16;;;;;;;2.97;1.45;;;19.30;67.50;;;;;;4942379;29;20127;-62
2021/10/01 14:27:43;;;;;;;8.00;1.67;;;19.00;69.60;;;;;;4944471;28;20062;-61
2021/10/01 14:30:12;;;;;;;2.28;1.05;;;18.50;79.20;;;;;;4943499;28;20094;-64
2021/10/01 14:32:39;;;;;;;5.32;0.93;;;17.40;83.20;;;;;;4943109;29;20130;-63
2021/10/01 14:35:06;;;;;;;6.05;1.50;;;16.20;85.80;;;;;;4944103;28;20465;-62
2021/10/01 14:37:33;;;;;;;4.75;1.20;;;15.50;87.90;;;;;;4943930;28;20126;-62
2021/10/01 14:40:00;;;;;;;4.40;1.40;;;15.20;89.60;;;;;;4943128;28;20514;-61